WMT411 LATI-LIPQ
Flight info
| Callsign | WMT411 |
|---|---|
| Flight time | 1h 11m |
| Altitude | 38000 |
| Route | DIRES DCT EBELA DCT KOFER DCT RIFEN |
| Aircraft | A321/M-SDE1E2E3FGIJ1J4RWXY/LB1 |
Departure
| Time | 2026-04-29 08:30 |
|---|---|
| Airport | Tirana International Airport Mother Teresa (LATI) |
Arrival
| Time | 2026-04-29 09:41 |
|---|---|
| Airport | Trieste Airport (LIPQ) |
| Time | Latitude | Longitude | Altitude | Speed | Heading |
|---|---|---|---|---|---|
| 2026-04-29 07:56 | 41.42417 | 19.71455 | 117 ft | 0 kts | 265° |
| 2026-04-29 08:22 | 41.42418 | 19.71473 | 116 ft | 4 kts | 255° |
| 2026-04-29 08:23 | 41.42430 | 19.71503 | 115 ft | 4 kts | 215° |
| 2026-04-29 08:23 | 41.42450 | 19.71512 | 116 ft | 1 kts | 174° |
| 2026-04-29 08:23 | 41.42451 | 19.71512 | 114 ft | 0 kts | 174° |
| 2026-04-29 08:25 | 41.42430 | 19.71515 | 115 ft | 8 kts | 174° |
| 2026-04-29 08:25 | 41.42351 | 19.71525 | 119 ft | 12 kts | 175° |
| 2026-04-29 08:25 | 41.42274 | 19.71534 | 117 ft | 10 kts | 174° |
| 2026-04-29 08:26 | 41.42212 | 19.71542 | 120 ft | 8 kts | 174° |
| 2026-04-29 08:26 | 41.42162 | 19.71550 | 121 ft | 7 kts | 173° |
| 2026-04-29 08:26 | 41.42116 | 19.71558 | 117 ft | 7 kts | 172° |
| 2026-04-29 08:26 | 41.42061 | 19.71569 | 122 ft | 9 kts | 171° |
| 2026-04-29 08:27 | 41.42019 | 19.71576 | 119 ft | 10 kts | 174° |
| 2026-04-29 08:27 | 41.41948 | 19.71582 | 121 ft | 11 kts | 176° |
| 2026-04-29 08:27 | 41.41866 | 19.71592 | 123 ft | 12 kts | 175° |
| 2026-04-29 08:27 | 41.41717 | 19.71613 | 124 ft | 24 kts | 174° |
| 2026-04-29 08:28 | 41.41606 | 19.71627 | 125 ft | 24 kts | 174° |
| 2026-04-29 08:28 | 41.41435 | 19.71651 | 127 ft | 25 kts | 174° |
| 2026-04-29 08:28 | 41.41262 | 19.71675 | 129 ft | 25 kts | 174° |
| 2026-04-29 08:28 | 41.41084 | 19.71697 | 130 ft | 26 kts | 174° |
| 2026-04-29 08:29 | 41.40904 | 19.71726 | 131 ft | 26 kts | 170° |
| 2026-04-29 08:29 | 41.40721 | 19.71761 | 132 ft | 24 kts | 175° |
| 2026-04-29 08:29 | 41.40644 | 19.71912 | 132 ft | 23 kts | 82° |
| 2026-04-29 08:29 | 41.40684 | 19.72103 | 134 ft | 18 kts | 55° |
| 2026-04-29 08:30 | 41.40813 | 19.72144 | 133 ft | 34 kts | 356° |
| 2026-04-29 08:30 | 41.42328 | 19.71939 | 140 ft | 170 kts | 354° |
| 2026-04-29 08:30 | 41.43491 | 19.71749 | 875 ft | 162 kts | 352° |
| 2026-04-29 08:31 | 41.44612 | 19.71538 | 1623 ft | 163 kts | 352° |
| 2026-04-29 08:31 | 41.45791 | 19.71380 | 2051 ft | 180 kts | 354° |
| 2026-04-29 08:31 | 41.47118 | 19.71206 | 2364 ft | 203 kts | 349° |
| 2026-04-29 08:31 | 41.48417 | 19.70295 | 2648 ft | 225 kts | 311° |
| 2026-04-29 08:32 | 41.49055 | 19.68367 | 2936 ft | 245 kts | 270° |
| 2026-04-29 08:32 | 41.48605 | 19.66157 | 3501 ft | 256 kts | 233° |
| 2026-04-29 08:32 | 41.47401 | 19.64393 | 4317 ft | 259 kts | 221° |
| 2026-04-29 08:32 | 41.46006 | 19.62840 | 5219 ft | 263 kts | 217° |
| 2026-04-29 08:33 | 41.44540 | 19.61345 | 6089 ft | 267 kts | 217° |
| 2026-04-29 08:33 | 41.43050 | 19.59836 | 6950 ft | 271 kts | 217° |
| 2026-04-29 08:33 | 41.41548 | 19.58285 | 7792 ft | 275 kts | 218° |
| 2026-04-29 08:33 | 41.40042 | 19.56692 | 8620 ft | 279 kts | 219° |
| 2026-04-29 08:34 | 41.38525 | 19.55058 | 9458 ft | 283 kts | 220° |
| 2026-04-29 08:34 | 41.36996 | 19.53383 | 10257 ft | 287 kts | 222° |
| 2026-04-29 08:34 | 41.35699 | 19.51270 | 10551 ft | 307 kts | 245° |
| 2026-04-29 08:34 | 41.35187 | 19.48449 | 10862 ft | 324 kts | 271° |
| 2026-04-29 08:35 | 41.35706 | 19.45524 | 11479 ft | 331 kts | 297° |
| 2026-04-29 08:35 | 41.37111 | 19.43096 | 12232 ft | 333 kts | 313° |
| 2026-04-29 08:35 | 41.38724 | 19.40865 | 13032 ft | 336 kts | 314° |
| 2026-04-29 08:35 | 41.40367 | 19.38634 | 13807 ft | 338 kts | 314° |
| 2026-04-29 08:36 | 41.42026 | 19.36391 | 14494 ft | 341 kts | 314° |
| 2026-04-29 08:36 | 41.43698 | 19.34128 | 15165 ft | 344 kts | 313° |
| 2026-04-29 08:36 | 41.45381 | 19.31841 | 15853 ft | 347 kts | 313° |
| 2026-04-29 08:36 | 41.47074 | 19.29532 | 16539 ft | 350 kts | 313° |
| 2026-04-29 08:37 | 41.48778 | 19.27196 | 17220 ft | 353 kts | 313° |
| 2026-04-29 08:37 | 41.50497 | 19.24833 | 17899 ft | 356 kts | 313° |
| 2026-04-29 08:37 | 41.52231 | 19.22451 | 18543 ft | 359 kts | 313° |
| 2026-04-29 08:37 | 41.53980 | 19.20054 | 19132 ft | 362 kts | 313° |
| 2026-04-29 08:38 | 41.55743 | 19.17636 | 19733 ft | 364 kts | 313° |
| 2026-04-29 08:38 | 41.57513 | 19.15203 | 20337 ft | 366 kts | 313° |
| 2026-04-29 08:38 | 41.59295 | 19.12749 | 20950 ft | 369 kts | 313° |
| 2026-04-29 08:38 | 41.61086 | 19.10283 | 21550 ft | 371 kts | 313° |
| 2026-04-29 08:39 | 41.62890 | 19.07796 | 22180 ft | 374 kts | 313° |
| 2026-04-29 08:39 | 41.64704 | 19.05295 | 22787 ft | 376 kts | 313° |
| 2026-04-29 08:39 | 41.66528 | 19.02777 | 23374 ft | 378 kts | 313° |
| 2026-04-29 08:39 | 41.68365 | 19.00240 | 23890 ft | 381 kts | 313° |
| 2026-04-29 08:40 | 41.70216 | 18.97684 | 24347 ft | 383 kts | 313° |
| 2026-04-29 08:40 | 41.72078 | 18.95108 | 24807 ft | 386 kts | 313° |
| 2026-04-29 08:40 | 41.73923 | 18.92550 | 25228 ft | 389 kts | 313° |
| 2026-04-29 08:40 | 41.75805 | 18.89935 | 25665 ft | 391 kts | 313° |
| 2026-04-29 08:41 | 41.77701 | 18.87305 | 26096 ft | 394 kts | 313° |
| 2026-04-29 08:41 | 41.79609 | 18.84655 | 26518 ft | 396 kts | 313° |
| 2026-04-29 08:41 | 41.81526 | 18.81986 | 26937 ft | 399 kts | 313° |
| 2026-04-29 08:41 | 41.83455 | 18.79298 | 27349 ft | 401 kts | 313° |
| 2026-04-29 08:42 | 41.85397 | 18.76595 | 27744 ft | 404 kts | 313° |
| 2026-04-29 08:42 | 41.87352 | 18.73869 | 28145 ft | 407 kts | 313° |
| 2026-04-29 08:42 | 41.89318 | 18.71123 | 28582 ft | 409 kts | 312° |
| 2026-04-29 08:42 | 41.91292 | 18.68364 | 28995 ft | 411 kts | 312° |
| 2026-04-29 08:43 | 41.93280 | 18.65596 | 29386 ft | 413 kts | 313° |
| 2026-04-29 08:43 | 41.95365 | 18.62918 | 29755 ft | 416 kts | 316° |
| 2026-04-29 08:43 | 41.97545 | 18.60334 | 30138 ft | 419 kts | 317° |
| 2026-04-29 08:43 | 41.99776 | 18.57796 | 30458 ft | 421 kts | 318° |
| 2026-04-29 08:44 | 42.02028 | 18.55258 | 30780 ft | 423 kts | 318° |
| 2026-04-29 08:44 | 42.04281 | 18.52695 | 31113 ft | 425 kts | 318° |
| 2026-04-29 08:44 | 42.06527 | 18.50095 | 31447 ft | 427 kts | 317° |
| 2026-04-29 08:44 | 42.08766 | 18.47455 | 31807 ft | 428 kts | 317° |
| 2026-04-29 08:45 | 42.10987 | 18.44804 | 32279 ft | 426 kts | 316° |
| 2026-04-29 08:45 | 42.13198 | 18.42157 | 32752 ft | 424 kts | 316° |
| 2026-04-29 08:45 | 42.15409 | 18.39513 | 33001 ft | 428 kts | 316° |
| 2026-04-29 08:45 | 42.17647 | 18.36835 | 33137 ft | 433 kts | 316° |
| 2026-04-29 08:46 | 42.19908 | 18.34130 | 33334 ft | 436 kts | 316° |
| 2026-04-29 08:46 | 42.22176 | 18.31420 | 33616 ft | 436 kts | 316° |
| 2026-04-29 08:46 | 42.24446 | 18.28710 | 33943 ft | 435 kts | 316° |
| 2026-04-29 08:46 | 42.26683 | 18.26043 | 34251 ft | 434 kts | 316° |
| 2026-04-29 08:47 | 42.28974 | 18.23309 | 34556 ft | 433 kts | 316° |
| 2026-04-29 08:47 | 42.31200 | 18.20646 | 34829 ft | 432 kts | 316° |
| 2026-04-29 08:47 | 42.33448 | 18.17950 | 35115 ft | 431 kts | 316° |
| 2026-04-29 08:47 | 42.35687 | 18.15261 | 35388 ft | 431 kts | 316° |
| 2026-04-29 08:48 | 42.37923 | 18.12572 | 35695 ft | 430 kts | 316° |
| 2026-04-29 08:48 | 42.40152 | 18.09887 | 36004 ft | 428 kts | 316° |
| 2026-04-29 08:48 | 42.42373 | 18.07213 | 36309 ft | 427 kts | 316° |
| 2026-04-29 08:48 | 42.44587 | 18.04547 | 36609 ft | 426 kts | 316° |
| 2026-04-29 08:49 | 42.46798 | 18.01884 | 36896 ft | 425 kts | 316° |
| 2026-04-29 08:49 | 42.49004 | 17.99222 | 37170 ft | 424 kts | 316° |
| 2026-04-29 08:49 | 42.51202 | 17.96564 | 37434 ft | 423 kts | 316° |
| 2026-04-29 08:49 | 42.53394 | 17.93908 | 37688 ft | 422 kts | 316° |
| 2026-04-29 08:50 | 42.55589 | 17.91250 | 37938 ft | 422 kts | 316° |
| 2026-04-29 08:50 | 42.57780 | 17.88597 | 38087 ft | 422 kts | 316° |
| 2026-04-29 08:50 | 42.59968 | 17.85944 | 38104 ft | 422 kts | 315° |
| 2026-04-29 08:51 | 42.64329 | 17.80638 | 38097 ft | 420 kts | 315° |
| 2026-04-29 08:51 | 42.68673 | 17.75346 | 38105 ft | 419 kts | 315° |
| 2026-04-29 08:52 | 42.73017 | 17.70055 | 38097 ft | 420 kts | 315° |
| 2026-04-29 08:52 | 42.77362 | 17.64737 | 38106 ft | 420 kts | 315° |
| 2026-04-29 08:53 | 42.81712 | 17.59396 | 38113 ft | 421 kts | 315° |
| 2026-04-29 08:53 | 42.86071 | 17.54053 | 38119 ft | 422 kts | 315° |
| 2026-04-29 08:54 | 42.90436 | 17.48700 | 38135 ft | 422 kts | 315° |
| 2026-04-29 08:54 | 42.94786 | 17.43337 | 38127 ft | 421 kts | 315° |
| 2026-04-29 08:55 | 42.99130 | 17.37969 | 38128 ft | 421 kts | 315° |
| 2026-04-29 08:55 | 43.03477 | 17.32590 | 38126 ft | 421 kts | 315° |
| 2026-04-29 08:56 | 43.07822 | 17.27205 | 38133 ft | 422 kts | 315° |
| 2026-04-29 08:56 | 43.12135 | 17.21846 | 38146 ft | 422 kts | 315° |
| 2026-04-29 08:57 | 43.16290 | 17.16662 | 38137 ft | 421 kts | 315° |
| 2026-04-29 08:57 | 43.20623 | 17.11259 | 38135 ft | 421 kts | 315° |
| 2026-04-29 08:58 | 43.24962 | 17.05866 | 38133 ft | 421 kts | 315° |
| 2026-04-29 08:58 | 43.29288 | 17.00455 | 38129 ft | 421 kts | 315° |
| 2026-04-29 08:59 | 43.33603 | 16.95020 | 38128 ft | 421 kts | 314° |
| 2026-04-29 08:59 | 43.37917 | 16.89587 | 38136 ft | 421 kts | 314° |
| 2026-04-29 09:00 | 43.42232 | 16.84159 | 38131 ft | 420 kts | 315° |
| 2026-04-29 09:00 | 43.46540 | 16.78734 | 38138 ft | 420 kts | 314° |
| 2026-04-29 09:01 | 43.50843 | 16.73297 | 38119 ft | 419 kts | 314° |
| 2026-04-29 09:01 | 43.55136 | 16.67860 | 38104 ft | 419 kts | 314° |
| 2026-04-29 09:02 | 43.59431 | 16.62411 | 38102 ft | 419 kts | 314° |
| 2026-04-29 09:02 | 43.63720 | 16.56943 | 38117 ft | 420 kts | 314° |
| 2026-04-29 09:03 | 43.68009 | 16.51469 | 38117 ft | 420 kts | 314° |
| 2026-04-29 09:03 | 43.72298 | 16.45986 | 38109 ft | 420 kts | 314° |
| 2026-04-29 09:04 | 43.76591 | 16.40495 | 38112 ft | 420 kts | 314° |
| 2026-04-29 09:04 | 43.80878 | 16.34990 | 38111 ft | 421 kts | 314° |
| 2026-04-29 09:05 | 43.85171 | 16.29479 | 38093 ft | 421 kts | 314° |
| 2026-04-29 09:05 | 43.89460 | 16.23964 | 38102 ft | 421 kts | 314° |
| 2026-04-29 09:06 | 43.93716 | 16.18476 | 38110 ft | 420 kts | 314° |
| 2026-04-29 09:06 | 43.97994 | 16.12936 | 38105 ft | 420 kts | 314° |
| 2026-04-29 09:07 | 44.02268 | 16.07395 | 38104 ft | 420 kts | 314° |
| 2026-04-29 09:07 | 44.06543 | 16.01845 | 38125 ft | 420 kts | 314° |
| 2026-04-29 09:08 | 44.10813 | 15.96286 | 38119 ft | 420 kts | 314° |
| 2026-04-29 09:08 | 44.15074 | 15.90723 | 38113 ft | 420 kts | 314° |
| 2026-04-29 09:09 | 44.19329 | 15.85162 | 38117 ft | 420 kts | 314° |
| 2026-04-29 09:09 | 44.23579 | 15.79586 | 38115 ft | 420 kts | 313° |
| 2026-04-29 09:10 | 44.27833 | 15.74004 | 38112 ft | 420 kts | 314° |
| 2026-04-29 09:10 | 44.32085 | 15.68425 | 38135 ft | 419 kts | 313° |
| 2026-04-29 09:11 | 44.36316 | 15.62841 | 38127 ft | 418 kts | 313° |
| 2026-04-29 09:11 | 44.40546 | 15.57261 | 38142 ft | 418 kts | 313° |
| 2026-04-29 09:12 | 44.44774 | 15.51673 | 38136 ft | 418 kts | 313° |
| 2026-04-29 09:12 | 44.49001 | 15.46068 | 38142 ft | 419 kts | 313° |
| 2026-04-29 09:13 | 44.53227 | 15.40449 | 38157 ft | 419 kts | 313° |
| 2026-04-29 09:13 | 44.57453 | 15.34822 | 38149 ft | 418 kts | 313° |
| 2026-04-29 09:14 | 44.60947 | 15.30157 | 37860 ft | 415 kts | 313° |
| 2026-04-29 09:14 | 44.63034 | 15.27372 | 37156 ft | 415 kts | 313° |
| 2026-04-29 09:14 | 44.65125 | 15.24577 | 36394 ft | 416 kts | 313° |
| 2026-04-29 09:14 | 44.67224 | 15.21764 | 35617 ft | 418 kts | 313° |
| 2026-04-29 09:15 | 44.69327 | 15.18940 | 34953 ft | 417 kts | 313° |
| 2026-04-29 09:15 | 44.71422 | 15.16130 | 34328 ft | 416 kts | 313° |
| 2026-04-29 09:15 | 44.73511 | 15.13323 | 33761 ft | 413 kts | 313° |
| 2026-04-29 09:15 | 44.75572 | 15.10552 | 33316 ft | 408 kts | 313° |
| 2026-04-29 09:16 | 44.77610 | 15.07815 | 32890 ft | 402 kts | 313° |
| 2026-04-29 09:16 | 44.79624 | 15.05106 | 32409 ft | 397 kts | 313° |
| 2026-04-29 09:16 | 44.81608 | 15.02435 | 31940 ft | 391 kts | 313° |
| 2026-04-29 09:16 | 44.83558 | 14.99807 | 31506 ft | 385 kts | 313° |
| 2026-04-29 09:17 | 44.85476 | 14.97218 | 31063 ft | 379 kts | 313° |
| 2026-04-29 09:17 | 44.87366 | 14.94662 | 30655 ft | 375 kts | 313° |
| 2026-04-29 09:17 | 44.89239 | 14.92123 | 30207 ft | 371 kts | 313° |
| 2026-04-29 09:17 | 44.91090 | 14.89610 | 29748 ft | 367 kts | 313° |
| 2026-04-29 09:18 | 44.92917 | 14.87128 | 29345 ft | 362 kts | 313° |
| 2026-04-29 09:18 | 44.94717 | 14.84683 | 28942 ft | 357 kts | 313° |
| 2026-04-29 09:18 | 44.96497 | 14.82266 | 28570 ft | 353 kts | 313° |
| 2026-04-29 09:18 | 44.98237 | 14.79900 | 28170 ft | 350 kts | 313° |
| 2026-04-29 09:19 | 44.99984 | 14.77522 | 27798 ft | 347 kts | 313° |
| 2026-04-29 09:19 | 45.01718 | 14.75160 | 27431 ft | 345 kts | 313° |
| 2026-04-29 09:19 | 45.03435 | 14.72815 | 27051 ft | 342 kts | 313° |
| 2026-04-29 09:19 | 45.05171 | 14.70439 | 26696 ft | 359 kts | 313° |
| 2026-04-29 09:20 | 45.07028 | 14.67885 | 26305 ft | 386 kts | 313° |
| 2026-04-29 09:20 | 45.09014 | 14.65159 | 25874 ft | 407 kts | 314° |
| 2026-04-29 09:20 | 45.11068 | 14.62351 | 25437 ft | 413 kts | 314° |
| 2026-04-29 09:20 | 45.13141 | 14.59522 | 24994 ft | 413 kts | 314° |
| 2026-04-29 09:21 | 45.15206 | 14.56705 | 24548 ft | 412 kts | 314° |
| 2026-04-29 09:21 | 45.17259 | 14.53893 | 24098 ft | 410 kts | 314° |
| 2026-04-29 09:21 | 45.19302 | 14.51091 | 23621 ft | 407 kts | 314° |
| 2026-04-29 09:21 | 45.21329 | 14.48298 | 23118 ft | 405 kts | 314° |
| 2026-04-29 09:22 | 45.23343 | 14.45514 | 22643 ft | 403 kts | 314° |
| 2026-04-29 09:22 | 45.25349 | 14.42745 | 22183 ft | 401 kts | 314° |
| 2026-04-29 09:22 | 45.27344 | 14.39998 | 21696 ft | 398 kts | 314° |
| 2026-04-29 09:22 | 45.29325 | 14.37265 | 21228 ft | 396 kts | 314° |
| 2026-04-29 09:23 | 45.31294 | 14.34536 | 20750 ft | 394 kts | 314° |
| 2026-04-29 09:23 | 45.33247 | 14.31825 | 20271 ft | 392 kts | 314° |
| 2026-04-29 09:23 | 45.35194 | 14.29121 | 19795 ft | 390 kts | 314° |
| 2026-04-29 09:23 | 45.37130 | 14.26430 | 19326 ft | 388 kts | 314° |
| 2026-04-29 09:24 | 45.39055 | 14.23756 | 18843 ft | 386 kts | 314° |
| 2026-04-29 09:24 | 45.40974 | 14.21094 | 18372 ft | 384 kts | 314° |
| 2026-04-29 09:24 | 45.42881 | 14.18447 | 17862 ft | 382 kts | 314° |
| 2026-04-29 09:24 | 45.44776 | 14.15813 | 17403 ft | 379 kts | 314° |
| 2026-04-29 09:25 | 45.46640 | 14.13223 | 17115 ft | 368 kts | 314° |
| 2026-04-29 09:25 | 45.48421 | 14.10751 | 16912 ft | 349 kts | 313° |
| 2026-04-29 09:25 | 45.50137 | 14.08362 | 16589 ft | 341 kts | 313° |
| 2026-04-29 09:25 | 45.51816 | 14.06012 | 16134 ft | 337 kts | 313° |
| 2026-04-29 09:26 | 45.53479 | 14.03678 | 15613 ft | 334 kts | 313° |
| 2026-04-29 09:26 | 45.55129 | 14.01359 | 15105 ft | 332 kts | 313° |
| 2026-04-29 09:26 | 45.56767 | 13.99055 | 14581 ft | 330 kts | 313° |
| 2026-04-29 09:26 | 45.58394 | 13.96768 | 14092 ft | 327 kts | 313° |
| 2026-04-29 09:27 | 45.60016 | 13.94486 | 13546 ft | 326 kts | 313° |
| 2026-04-29 09:27 | 45.61618 | 13.92232 | 13133 ft | 321 kts | 313° |
| 2026-04-29 09:27 | 45.63192 | 13.90014 | 12740 ft | 316 kts | 313° |
| 2026-04-29 09:27 | 45.64747 | 13.87824 | 12358 ft | 312 kts | 312° |
| 2026-04-29 09:28 | 45.66271 | 13.85677 | 11975 ft | 311 kts | 312° |
| 2026-04-29 09:28 | 45.67803 | 13.83518 | 11587 ft | 308 kts | 312° |
| 2026-04-29 09:28 | 45.69340 | 13.81353 | 11208 ft | 306 kts | 312° |
| 2026-04-29 09:28 | 45.70841 | 13.79235 | 10837 ft | 307 kts | 312° |
| 2026-04-29 09:29 | 45.72358 | 13.77085 | 10455 ft | 308 kts | 311° |
| 2026-04-29 09:29 | 45.75330 | 13.72871 | 10083 ft | 289 kts | 313° |
| 2026-04-29 09:29 | 45.76753 | 13.70860 | 9660 ft | 288 kts | 312° |
| 2026-04-29 09:30 | 45.78168 | 13.68853 | 9246 ft | 285 kts | 313° |
| 2026-04-29 09:30 | 45.79575 | 13.66854 | 8849 ft | 283 kts | 313° |
| 2026-04-29 09:30 | 45.80967 | 13.64871 | 8462 ft | 281 kts | 314° |
| 2026-04-29 09:30 | 45.82344 | 13.62912 | 8167 ft | 277 kts | 313° |
| 2026-04-29 09:31 | 45.83667 | 13.60930 | 7839 ft | 274 kts | 306° |
| 2026-04-29 09:31 | 45.84480 | 13.58483 | 7356 ft | 270 kts | 281° |
| 2026-04-29 09:31 | 45.84510 | 13.55881 | 6887 ft | 256 kts | 258° |
| 2026-04-29 09:31 | 45.84051 | 13.53463 | 6424 ft | 246 kts | 254° |
| 2026-04-29 09:32 | 45.83600 | 13.51193 | 6268 ft | 232 kts | 255° |
| 2026-04-29 09:32 | 45.83161 | 13.48962 | 6135 ft | 231 kts | 257° |
| 2026-04-29 09:32 | 45.82962 | 13.46708 | 5997 ft | 228 kts | 272° |
| 2026-04-29 09:32 | 45.82953 | 13.44429 | 5877 ft | 229 kts | 271° |
| 2026-04-29 09:33 | 45.82936 | 13.42145 | 5749 ft | 229 kts | 271° |
| 2026-04-29 09:33 | 45.82917 | 13.39858 | 5622 ft | 230 kts | 271° |
| 2026-04-29 09:33 | 45.82899 | 13.37568 | 5459 ft | 230 kts | 271° |
| 2026-04-29 09:33 | 45.82882 | 13.35278 | 5186 ft | 229 kts | 271° |
| 2026-04-29 09:34 | 45.82870 | 13.32999 | 4914 ft | 229 kts | 271° |
| 2026-04-29 09:34 | 45.82861 | 13.30719 | 4630 ft | 229 kts | 271° |
| 2026-04-29 09:34 | 45.82854 | 13.28443 | 4348 ft | 228 kts | 271° |
| 2026-04-29 09:34 | 45.82864 | 13.26168 | 4068 ft | 229 kts | 272° |
| 2026-04-29 09:35 | 45.82885 | 13.23883 | 3803 ft | 228 kts | 272° |
| 2026-04-29 09:35 | 45.82907 | 13.21608 | 3739 ft | 229 kts | 272° |
| 2026-04-29 09:35 | 45.82929 | 13.19324 | 3684 ft | 230 kts | 272° |
| 2026-04-29 09:35 | 45.83075 | 13.17001 | 3635 ft | 242 kts | 290° |
| 2026-04-29 09:36 | 45.83976 | 13.15023 | 3589 ft | 242 kts | 324° |
| 2026-04-29 09:36 | 45.85492 | 13.14040 | 3538 ft | 236 kts | 356° |
| 2026-04-29 09:36 | 45.87063 | 13.14317 | 3489 ft | 231 kts | 25° |
| 2026-04-29 09:36 | 45.88315 | 13.15699 | 3440 ft | 229 kts | 55° |
| 2026-04-29 09:37 | 45.88899 | 13.17794 | 3389 ft | 229 kts | 84° |
| 2026-04-29 09:37 | 45.88656 | 13.20037 | 3343 ft | 232 kts | 113° |
| 2026-04-29 09:37 | 45.87628 | 13.21818 | 3293 ft | 238 kts | 144° |
| 2026-04-29 09:37 | 45.86096 | 13.22761 | 3239 ft | 242 kts | 159° |
| 2026-04-29 09:38 | 45.84518 | 13.23597 | 3184 ft | 240 kts | 149° |
| 2026-04-29 09:38 | 45.83322 | 13.25146 | 3124 ft | 230 kts | 118° |
| 2026-04-29 09:38 | 45.82866 | 13.27300 | 3072 ft | 227 kts | 91° |
| 2026-04-29 09:38 | 45.82842 | 13.29568 | 2889 ft | 224 kts | 88° |
| 2026-04-29 09:39 | 45.82845 | 13.31751 | 2374 ft | 214 kts | 88° |
| 2026-04-29 09:39 | 45.82841 | 13.33809 | 1950 ft | 200 kts | 89° |
| 2026-04-29 09:39 | 45.82834 | 13.35711 | 1527 ft | 175 kts | 88° |
| 2026-04-29 09:39 | 45.82826 | 13.37352 | 1199 ft | 152 kts | 89° |
| 2026-04-29 09:40 | 45.82821 | 13.38780 | 941 ft | 138 kts | 88° |
| 2026-04-29 09:40 | 45.82816 | 13.40130 | 749 ft | 133 kts | 90° |
| 2026-04-29 09:40 | 45.82810 | 13.41445 | 581 ft | 132 kts | 89° |
| 2026-04-29 09:40 | 45.82808 | 13.42750 | 352 ft | 131 kts | 90° |
| 2026-04-29 09:41 | 45.82804 | 13.44022 | 186 ft | 128 kts | 90° |
| 2026-04-29 09:41 | 45.82800 | 13.45313 | 62 ft | 123 kts | 90° |
| 2026-04-29 09:41 | 45.82792 | 13.46363 | 44 ft | 86 kts | 90° |
| 2026-04-29 09:41 | 45.82788 | 13.46994 | 47 ft | 49 kts | 91° |
| 2026-04-29 09:42 | 45.82782 | 13.47347 | 47 ft | 20 kts | 91° |
| 2026-04-29 09:42 | 45.82778 | 13.47556 | 48 ft | 20 kts | 92° |
| 2026-04-29 09:42 | 45.82744 | 13.47667 | 48 ft | 13 kts | 132° |
| 2026-04-29 09:42 | 45.82671 | 13.47765 | 46 ft | 16 kts | 139° |
| 2026-04-29 09:43 | 45.82595 | 13.47848 | 46 ft | 12 kts | 145° |
| 2026-04-29 09:43 | 45.82526 | 13.47930 | 46 ft | 14 kts | 139° |
| 2026-04-29 09:43 | 45.82450 | 13.48023 | 46 ft | 10 kts | 140° |
| 2026-04-29 09:43 | 45.82399 | 13.48086 | 46 ft | 11 kts | 139° |
| 2026-04-29 09:44 | 45.82334 | 13.48165 | 46 ft | 13 kts | 139° |
| 2026-04-29 09:44 | 45.82267 | 13.48262 | 45 ft | 11 kts | 121° |
| 2026-04-29 09:44 | 45.82265 | 13.48374 | 44 ft | 11 kts | 80° |
| 2026-04-29 09:44 | 45.82285 | 13.48461 | 45 ft | 2 kts | 37° |
| 2026-04-29 09:45 | 45.82286 | 13.48461 | 45 ft | 1 kts | 32° |
| 2026-04-29 09:45 | 45.82303 | 13.48459 | 46 ft | 4 kts | 353° |
| 2026-04-29 09:45 | 45.82314 | 13.48457 | 46 ft | 0 kts | 351° |